sensor_id;sensor_type;location;lat;lon;timestamp;P1;durP1;ratioP1;P2;durP2;ratioP2
58621;SDS011;44389;51.578;5.456;2023-04-23T00:00:59;154.75;;;86.47;;
58621;SDS011;44389;51.578;5.456;2023-04-23T00:03:26;154.75;;;85.35;;
58621;SDS011;44389;51.578;5.456;2023-04-23T00:05:53;143.35;;;81.78;;
58621;SDS011;44389;51.578;5.456;2023-04-23T00:08:21;147.63;;;83.65;;
58621;SDS011;44389;51.578;5.456;2023-04-23T00:10:47;159.48;;;88.78;;
58621;SDS011;44389;51.578;5.456;2023-04-23T00:13:13;161.07;;;88.55;;
58621;SDS011;44389;51.578;5.456;2023-04-23T00:15:38;162.45;;;88.70;;
58621;SDS011;44389;51.578;5.456;2023-04-23T00:18:04;167.73;;;88.63;;
58621;SDS011;44389;51.578;5.456;2023-04-23T00:20:29;172.80;;;91.32;;
58621;SDS011;44389;51.578;5.456;2023-04-23T00:22:55;161.57;;;87.45;;
58621;SDS011;44389;51.578;5.456;2023-04-23T00:25:20;186.25;;;93.53;;
58621;SDS011;44389;51.578;5.456;2023-04-23T00:27:45;200.88;;;97.43;;
58621;SDS011;44389;51.578;5.456;2023-04-23T00:30:11;200.70;;;96.68;;
58621;SDS011;44389;51.578;5.456;2023-04-23T00:32:37;191.30;;;94.60;;
58621;SDS011;44389;51.578;5.456;2023-04-23T00:35:02;187.27;;;93.25;;
58621;SDS011;44389;51.578;5.456;2023-04-23T00:37:28;189.63;;;93.32;;
58621;SDS011;44389;51.578;5.456;2023-04-23T00:39:53;186.73;;;92.82;;
58621;SDS011;44389;51.578;5.456;2023-04-23T00:42:18;184.57;;;93.28;;
58621;SDS011;44389;51.578;5.456;2023-04-23T00:44:44;177.10;;;91.57;;
58621;SDS011;44389;51.578;5.456;2023-04-23T00:47:10;188.02;;;91.10;;
58621;SDS011;44389;51.578;5.456;2023-04-23T00:49:36;184.02;;;91.72;;
58621;SDS011;44389;51.578;5.456;2023-04-23T00:52:03;183.95;;;91.38;;
58621;SDS011;44389;51.578;5.456;2023-04-23T00:54:28;179.15;;;90.18;;
58621;SDS011;44389;51.578;5.456;2023-04-23T00:56:54;188.75;;;88.30;;
58621;SDS011;44389;51.578;5.456;2023-04-23T00:59:21;181.65;;;90.72;;
58621;SDS011;44389;51.578;5.456;2023-04-23T01:01:48;180.73;;;88.32;;
58621;SDS011;44389;51.578;5.456;2023-04-23T01:04:14;191.85;;;90.25;;
58621;SDS011;44389;51.578;5.456;2023-04-23T01:06:41;188.80;;;91.32;;
58621;SDS011;44389;51.578;5.456;2023-04-23T01:09:07;177.15;;;89.57;;
58621;SDS011;44389;51.578;5.456;2023-04-23T01:11:34;180.10;;;90.97;;
58621;SDS011;44389;51.578;5.456;2023-04-23T01:14:03;187.35;;;90.38;;
58621;SDS011;44389;51.578;5.456;2023-04-23T01:16:28;175.15;;;89.38;;
58621;SDS011;44389;51.578;5.456;2023-04-23T01:18:53;178.40;;;90.20;;
58621;SDS011;44389;51.578;5.456;2023-04-23T01:21:20;176.45;;;90.38;;
58621;SDS011;44389;51.578;5.456;2023-04-23T01:23:47;171.40;;;87.60;;
58621;SDS011;44389;51.578;5.456;2023-04-23T01:26:13;156.40;;;84.15;;
58621;SDS011;44389;51.578;5.456;2023-04-23T01:28:39;163.73;;;84.63;;
58621;SDS011;44389;51.578;5.456;2023-04-23T01:31:05;159.88;;;84.47;;
58621;SDS011;44389;51.578;5.456;2023-04-23T01:33:31;148.90;;;83.45;;
58621;SDS011;44389;51.578;5.456;2023-04-23T01:35:57;156.07;;;84.63;;
58621;SDS011;44389;51.578;5.456;2023-04-23T01:38:22;147.32;;;81.38;;
58621;SDS011;44389;51.578;5.456;2023-04-23T01:40:51;148.15;;;79.30;;
58621;SDS011;44389;51.578;5.456;2023-04-23T01:43:16;151.15;;;82.68;;
58621;SDS011;44389;51.578;5.456;2023-04-23T01:45:41;134.73;;;78.05;;
58621;SDS011;44389;51.578;5.456;2023-04-23T01:48:07;146.30;;;82.18;;
58621;SDS011;44389;51.578;5.456;2023-04-23T01:50:32;139.57;;;79.03;;
58621;SDS011;44389;51.578;5.456;2023-04-23T01:52:58;139.10;;;80.93;;
58621;SDS011;44389;51.578;5.456;2023-04-23T01:55:23;143.50;;;80.25;;
58621;SDS011;44389;51.578;5.456;2023-04-23T01:57:48;136.93;;;80.88;;
58621;SDS011;44389;51.578;5.456;2023-04-23T02:00:15;130.30;;;77.38;;
58621;SDS011;44389;51.578;5.456;2023-04-23T02:02:41;123.75;;;74.75;;
58621;SDS011;44389;51.578;5.456;2023-04-23T02:05:14;127.40;;;77.43;;
58621;SDS011;44389;51.578;5.456;2023-04-23T02:07:42;127.95;;;74.95;;
58621;SDS011;44389;51.578;5.456;2023-04-23T02:10:09;120.35;;;73.50;;
58621;SDS011;44389;51.578;5.456;2023-04-23T02:12:37;122.53;;;70.70;;
58621;SDS011;44389;51.578;5.456;2023-04-23T02:15:04;115.15;;;71.45;;
58621;SDS011;44389;51.578;5.456;2023-04-23T02:17:30;118.22;;;70.78;;
58621;SDS011;44389;51.578;5.456;2023-04-23T02:19:56;116.97;;;72.88;;
58621;SDS011;44389;51.578;5.456;2023-04-23T02:22:21;115.72;;;70.97;;
58621;SDS011;44389;51.578;5.456;2023-04-23T02:24:49;115.25;;;70.85;;
58621;SDS011;44389;51.578;5.456;2023-04-23T02:27:15;113.97;;;70.68;;
58621;SDS011;44389;51.578;5.456;2023-04-23T02:29:41;115.88;;;69.57;;
58621;SDS011;44389;51.578;5.456;2023-04-23T02:32:06;114.10;;;69.47;;
58621;SDS011;44389;51.578;5.456;2023-04-23T02:34:31;114.93;;;70.93;;
58621;SDS011;44389;51.578;5.456;2023-04-23T02:36:57;106.80;;;67.50;;
58621;SDS011;44389;51.578;5.456;2023-04-23T02:39:22;106.22;;;66.55;;
58621;SDS011;44389;51.578;5.456;2023-04-23T02:41:47;104.05;;;68.88;;
58621;SDS011;44389;51.578;5.456;2023-04-23T02:44:13;102.53;;;67.22;;
58621;SDS011;44389;51.578;5.456;2023-04-23T02:46:38;99.88;;;64.35;;
58621;SDS011;44389;51.578;5.456;2023-04-23T02:49:03;102.55;;;65.85;;
58621;SDS011;44389;51.578;5.456;2023-04-23T02:51:30;96.97;;;63.43;;
58621;SDS011;44389;51.578;5.456;2023-04-23T02:53:56;95.45;;;63.88;;
58621;SDS011;44389;51.578;5.456;2023-04-23T02:56:21;95.25;;;63.33;;
58621;SDS011;44389;51.578;5.456;2023-04-23T02:58:47;99.00;;;64.75;;
58621;SDS011;44389;51.578;5.456;2023-04-23T03:01:12;99.57;;;64.85;;
58621;SDS011;44389;51.578;5.456;2023-04-23T03:03:38;99.82;;;64.13;;
58621;SDS011;44389;51.578;5.456;2023-04-23T03:06:03;100.78;;;64.45;;
58621;SDS011;44389;51.578;5.456;2023-04-23T03:08:30;99.72;;;62.40;;
58621;SDS011;44389;51.578;5.456;2023-04-23T03:10:56;97.20;;;63.97;;
58621;SDS011;44389;51.578;5.456;2023-04-23T03:13:21;101.13;;;62.97;;
58621;SDS011;44389;51.578;5.456;2023-04-23T03:15:47;99.38;;;65.28;;
58621;SDS011;44389;51.578;5.456;2023-04-23T03:18:13;90.53;;;60.60;;
58621;SDS011;44389;51.578;5.456;2023-04-23T03:20:38;84.55;;;59.78;;
58621;SDS011;44389;51.578;5.456;2023-04-23T03:23:03;85.78;;;58.70;;
58621;SDS011;44389;51.578;5.456;2023-04-23T03:25:32;88.28;;;58.83;;
58621;SDS011;44389;51.578;5.456;2023-04-23T03:27:58;83.28;;;58.10;;
58621;SDS011;44389;51.578;5.456;2023-04-23T03:30:23;79.35;;;57.22;;
58621;SDS011;44389;51.578;5.456;2023-04-23T03:32:49;82.90;;;59.25;;
58621;SDS011;44389;51.578;5.456;2023-04-23T03:35:15;86.35;;;58.70;;
58621;SDS011;44389;51.578;5.456;2023-04-23T03:37:40;85.20;;;61.40;;
58621;SDS011;44389;51.578;5.456;2023-04-23T03:40:07;87.47;;;61.22;;
58621;SDS011;44389;51.578;5.456;2023-04-23T03:42:33;89.50;;;61.30;;
58621;SDS011;44389;51.578;5.456;2023-04-23T03:44:59;82.90;;;57.80;;
58621;SDS011;44389;51.578;5.456;2023-04-23T03:47:24;85.90;;;59.45;;
58621;SDS011;44389;51.578;5.456;2023-04-23T03:49:50;86.22;;;57.60;;
58621;SDS011;44389;51.578;5.456;2023-04-23T03:52:16;78.97;;;56.63;;
58621;SDS011;44389;51.578;5.456;2023-04-23T03:54:41;80.55;;;57.50;;
58621;SDS011;44389;51.578;5.456;2023-04-23T03:57:07;76.72;;;55.85;;
58621;SDS011;44389;51.578;5.456;2023-04-23T03:59:33;80.45;;;57.35;;
58621;SDS011;44389;51.578;5.456;2023-04-23T04:01:58;74.82;;;54.60;;
58621;SDS011;44389;51.578;5.456;2023-04-23T04:04:23;74.78;;;53.72;;
58621;SDS011;44389;51.578;5.456;2023-04-23T04:06:49;75.20;;;54.42;;
58621;SDS011;44389;51.578;5.456;2023-04-23T04:09:14;79.43;;;55.03;;
58621;SDS011;44389;51.578;5.456;2023-04-23T04:11:39;68.15;;;50.25;;
58621;SDS011;44389;51.578;5.456;2023-04-23T04:14:05;77.60;;;54.22;;
58621;SDS011;44389;51.578;5.456;2023-04-23T04:16:30;67.35;;;50.80;;
58621;SDS011;44389;51.578;5.456;2023-04-23T04:18:55;65.57;;;49.80;;
58621;SDS011;44389;51.578;5.456;2023-04-23T04:21:21;64.70;;;48.67;;
58621;SDS011;44389;51.578;5.456;2023-04-23T04:23:46;59.55;;;47.03;;
58621;SDS011;44389;51.578;5.456;2023-04-23T04:26:12;60.92;;;47.20;;
58621;SDS011;44389;51.578;5.456;2023-04-23T04:28:39;64.28;;;47.33;;
58621;SDS011;44389;51.578;5.456;2023-04-23T04:31:04;63.35;;;45.70;;
58621;SDS011;44389;51.578;5.456;2023-04-23T04:33:30;63.30;;;47.83;;
58621;SDS011;44389;51.578;5.456;2023-04-23T04:35:57;58.90;;;44.40;;
58621;SDS011;44389;51.578;5.456;2023-04-23T04:38:23;58.40;;;45.83;;
58621;SDS011;44389;51.578;5.456;2023-04-23T04:40:48;59.08;;;44.97;;
58621;SDS011;44389;51.578;5.456;2023-04-23T04:43:14;55.05;;;43.15;;
58621;SDS011;44389;51.578;5.456;2023-04-23T04:45:40;56.17;;;43.42;;
58621;SDS011;44389;51.578;5.456;2023-04-23T04:48:06;53.05;;;42.55;;
58621;SDS011;44389;51.578;5.456;2023-04-23T04:50:32;55.58;;;43.30;;
58621;SDS011;44389;51.578;5.456;2023-04-23T04:52:57;55.00;;;43.10;;
58621;SDS011;44389;51.578;5.456;2023-04-23T04:55:22;52.03;;;42.42;;
58621;SDS011;44389;51.578;5.456;2023-04-23T04:57:48;49.97;;;41.22;;
58621;SDS011;44389;51.578;5.456;2023-04-23T05:00:20;52.78;;;42.40;;
58621;SDS011;44389;51.578;5.456;2023-04-23T05:02:50;53.75;;;42.45;;
58621;SDS011;44389;51.578;5.456;2023-04-23T05:05:16;54.33;;;41.78;;
58621;SDS011;44389;51.578;5.456;2023-04-23T05:07:42;52.70;;;42.15;;
58621;SDS011;44389;51.578;5.456;2023-04-23T05:10:08;51.95;;;41.80;;
58621;SDS011;44389;51.578;5.456;2023-04-23T05:12:33;57.47;;;41.30;;
58621;SDS011;44389;51.578;5.456;2023-04-23T05:14:59;52.90;;;41.92;;
58621;SDS011;44389;51.578;5.456;2023-04-23T05:17:24;52.63;;;41.53;;
58621;SDS011;44389;51.578;5.456;2023-04-23T05:19:49;52.85;;;42.95;;
58621;SDS011;44389;51.578;5.456;2023-04-23T05:22:15;52.85;;;41.53;;
58621;SDS011;44389;51.578;5.456;2023-04-23T05:24:42;52.22;;;41.10;;
58621;SDS011;44389;51.578;5.456;2023-04-23T05:27:07;53.13;;;43.45;;
58621;SDS011;44389;51.578;5.456;2023-04-23T05:29:32;52.80;;;42.28;;
58621;SDS011;44389;51.578;5.456;2023-04-23T05:31:58;52.60;;;43.33;;
58621;SDS011;44389;51.578;5.456;2023-04-23T05:34:23;51.05;;;41.05;;
58621;SDS011;44389;51.578;5.456;2023-04-23T05:36:48;51.85;;;40.75;;
58621;SDS011;44389;51.578;5.456;2023-04-23T05:39:13;51.13;;;40.00;;
58621;SDS011;44389;51.578;5.456;2023-04-23T05:41:39;52.55;;;42.20;;
58621;SDS011;44389;51.578;5.456;2023-04-23T05:44:04;48.97;;;40.03;;
58621;SDS011;44389;51.578;5.456;2023-04-23T05:46:30;50.35;;;40.03;;
58621;SDS011;44389;51.578;5.456;2023-04-23T05:48:55;46.10;;;38.60;;
58621;SDS011;44389;51.578;5.456;2023-04-23T05:51:20;48.50;;;39.83;;
58621;SDS011;44389;51.578;5.456;2023-04-23T05:53:46;47.97;;;38.47;;
58621;SDS011;44389;51.578;5.456;2023-04-23T05:56:11;46.30;;;38.65;;
58621;SDS011;44389;51.578;5.456;2023-04-23T05:58:36;46.78;;;39.38;;
58621;SDS011;44389;51.578;5.456;2023-04-23T06:01:02;46.50;;;36.97;;
58621;SDS011;44389;51.578;5.456;2023-04-23T06:03:28;46.17;;;36.28;;
58621;SDS011;44389;51.578;5.456;2023-04-23T06:05:53;41.05;;;34.22;;
58621;SDS011;44389;51.578;5.456;2023-04-23T06:08:19;41.38;;;33.80;;
58621;SDS011;44389;51.578;5.456;2023-04-23T06:10:44;40.70;;;33.30;;
58621;SDS011;44389;51.578;5.456;2023-04-23T06:13:10;39.70;;;32.85;;
58621;SDS011;44389;51.578;5.456;2023-04-23T06:15:35;38.75;;;31.77;;
58621;SDS011;44389;51.578;5.456;2023-04-23T06:18:00;38.13;;;31.80;;
58621;SDS011;44389;51.578;5.456;2023-04-23T06:20:26;38.33;;;30.70;;
58621;SDS011;44389;51.578;5.456;2023-04-23T06:22:51;31.63;;;28.23;;
58621;SDS011;44389;51.578;5.456;2023-04-23T06:25:16;36.38;;;28.38;;
58621;SDS011;44389;51.578;5.456;2023-04-23T06:27:42;34.38;;;28.50;;
58621;SDS011;44389;51.578;5.456;2023-04-23T06:30:07;35.47;;;26.85;;
58621;SDS011;44389;51.578;5.456;2023-04-23T06:32:33;36.33;;;28.35;;
58621;SDS011;44389;51.578;5.456;2023-04-23T06:34:58;30.00;;;25.67;;
58621;SDS011;44389;51.578;5.456;2023-04-23T06:37:23;30.75;;;26.33;;
58621;SDS011;44389;51.578;5.456;2023-04-23T06:39:50;32.67;;;26.77;;
58621;SDS011;44389;51.578;5.456;2023-04-23T06:42:15;33.10;;;27.23;;
58621;SDS011;44389;51.578;5.456;2023-04-23T06:44:40;30.42;;;25.38;;
58621;SDS011;44389;51.578;5.456;2023-04-23T06:47:06;30.30;;;24.02;;
58621;SDS011;44389;51.578;5.456;2023-04-23T06:49:31;29.98;;;23.50;;
58621;SDS011;44389;51.578;5.456;2023-04-23T06:51:56;30.02;;;22.90;;
58621;SDS011;44389;51.578;5.456;2023-04-23T06:54:21;27.80;;;22.70;;
58621;SDS011;44389;51.578;5.456;2023-04-23T06:56:47;29.40;;;21.80;;
58621;SDS011;44389;51.578;5.456;2023-04-23T06:59:12;26.13;;;21.05;;
58621;SDS011;44389;51.578;5.456;2023-04-23T07:01:37;24.27;;;19.48;;
58621;SDS011;44389;51.578;5.456;2023-04-23T07:04:03;25.92;;;19.98;;
58621;SDS011;44389;51.578;5.456;2023-04-23T07:06:28;23.15;;;19.38;;
58621;SDS011;44389;51.578;5.456;2023-04-23T07:08:53;25.00;;;19.10;;
58621;SDS011;44389;51.578;5.456;2023-04-23T07:11:18;25.23;;;19.08;;
58621;SDS011;44389;51.578;5.456;2023-04-23T07:13:44;24.98;;;16.73;;
58621;SDS011;44389;51.578;5.456;2023-04-23T07:16:09;25.15;;;16.35;;
58621;SDS011;44389;51.578;5.456;2023-04-23T07:18:35;21.42;;;16.60;;
58621;SDS011;44389;51.578;5.456;2023-04-23T07:21:00;26.30;;;16.85;;
58621;SDS011;44389;51.578;5.456;2023-04-23T07:23:26;19.85;;;15.52;;
58621;SDS011;44389;51.578;5.456;2023-04-23T07:25:51;24.13;;;15.60;;
58621;SDS011;44389;51.578;5.456;2023-04-23T07:28:16;22.38;;;14.98;;
58621;SDS011;44389;51.578;5.456;2023-04-23T07:30:41;21.65;;;14.73;;
58621;SDS011;44389;51.578;5.456;2023-04-23T07:33:07;20.33;;;13.35;;
58621;SDS011;44389;51.578;5.456;2023-04-23T07:35:32;21.15;;;13.93;;
58621;SDS011;44389;51.578;5.456;2023-04-23T07:37:58;24.00;;;13.23;;
58621;SDS011;44389;51.578;5.456;2023-04-23T07:40:23;19.70;;;12.52;;
58621;SDS011;44389;51.578;5.456;2023-04-23T07:42:48;17.58;;;11.85;;
58621;SDS011;44389;51.578;5.456;2023-04-23T07:45:14;17.70;;;11.60;;
58621;SDS011;44389;51.578;5.456;2023-04-23T07:47:40;16.00;;;10.82;;
58621;SDS011;44389;51.578;5.456;2023-04-23T07:50:05;16.73;;;9.60;;
58621;SDS011;44389;51.578;5.456;2023-04-23T07:52:31;19.15;;;9.63;;
58621;SDS011;44389;51.578;5.456;2023-04-23T07:54:56;15.07;;;9.45;;
58621;SDS011;44389;51.578;5.456;2023-04-23T07:57:22;17.05;;;8.75;;
58621;SDS011;44389;51.578;5.456;2023-04-23T07:59:47;15.77;;;8.32;;
58621;SDS011;44389;51.578;5.456;2023-04-23T08:02:12;15.02;;;8.10;;
58621;SDS011;44389;51.578;5.456;2023-04-23T08:04:38;17.83;;;7.80;;
58621;SDS011;44389;51.578;5.456;2023-04-23T08:07:03;17.08;;;8.02;;
58621;SDS011;44389;51.578;5.456;2023-04-23T08:09:29;16.25;;;7.38;;
58621;SDS011;44389;51.578;5.456;2023-04-23T08:11:55;11.50;;;6.25;;
58621;SDS011;44389;51.578;5.456;2023-04-23T08:14:21;16.50;;;6.97;;
58621;SDS011;44389;51.578;5.456;2023-04-23T08:16:47;17.08;;;5.90;;
58621;SDS011;44389;51.578;5.456;2023-04-23T08:19:12;14.15;;;5.93;;
58621;SDS011;44389;51.578;5.456;2023-04-23T08:21:37;20.20;;;7.03;;
58621;SDS011;44389;51.578;5.456;2023-04-23T08:24:02;14.93;;;6.47;;
58621;SDS011;44389;51.578;5.456;2023-04-23T08:26:29;15.20;;;6.20;;
58621;SDS011;44389;51.578;5.456;2023-04-23T08:28:55;21.65;;;6.20;;
58621;SDS011;44389;51.578;5.456;2023-04-23T08:31:21;18.05;;;6.40;;
58621;SDS011;44389;51.578;5.456;2023-04-23T08:33:46;14.10;;;5.65;;
58621;SDS011;44389;51.578;5.456;2023-04-23T08:36:12;15.45;;;6.15;;
58621;SDS011;44389;51.578;5.456;2023-04-23T08:38:39;16.23;;;5.53;;
58621;SDS011;44389;51.578;5.456;2023-04-23T08:41:05;16.10;;;6.00;;
58621;SDS011;44389;51.578;5.456;2023-04-23T08:43:37;16.15;;;5.57;;
58621;SDS011;44389;51.578;5.456;2023-04-23T08:46:11;11.20;;;4.80;;
58621;SDS011;44389;51.578;5.456;2023-04-23T08:48:39;11.32;;;4.13;;
58621;SDS011;44389;51.578;5.456;2023-04-23T08:51:05;11.02;;;4.28;;
58621;SDS011;44389;51.578;5.456;2023-04-23T08:53:33;13.95;;;3.85;;
58621;SDS011;44389;51.578;5.456;2023-04-23T08:55:58;12.45;;;4.03;;
58621;SDS011;44389;51.578;5.456;2023-04-23T08:58:24;11.32;;;3.47;;
58621;SDS011;44389;51.578;5.456;2023-04-23T09:00:52;13.85;;;3.63;;
58621;SDS011;44389;51.578;5.456;2023-04-23T09:03:18;12.73;;;3.70;;
58621;SDS011;44389;51.578;5.456;2023-04-23T09:05:44;9.52;;;3.45;;
58621;SDS011;44389;51.578;5.456;2023-04-23T09:08:10;11.95;;;3.53;;
58621;SDS011;44389;51.578;5.456;2023-04-23T09:10:36;11.18;;;3.75;;
58621;SDS011;44389;51.578;5.456;2023-04-23T09:13:05;11.68;;;3.33;;
58621;SDS011;44389;51.578;5.456;2023-04-23T09:15:31;10.10;;;3.38;;
58621;SDS011;44389;51.578;5.456;2023-04-23T09:17:56;10.43;;;3.10;;
58621;SDS011;44389;51.578;5.456;2023-04-23T09:20:22;8.80;;;2.83;;
58621;SDS011;44389;51.578;5.456;2023-04-23T09:22:48;10.63;;;3.10;;
58621;SDS011;44389;51.578;5.456;2023-04-23T09:25:17;7.85;;;2.90;;
58621;SDS011;44389;51.578;5.456;2023-04-23T09:27:44;13.25;;;3.30;;
58621;SDS011;44389;51.578;5.456;2023-04-23T09:30:11;10.73;;;3.60;;
58621;SDS011;44389;51.578;5.456;2023-04-23T09:32:38;9.18;;;3.17;;
58621;SDS011;44389;51.578;5.456;2023-04-23T09:35:09;13.55;;;3.28;;
58621;SDS011;44389;51.578;5.456;2023-04-23T09:37:39;10.48;;;2.97;;
58621;SDS011;44389;51.578;5.456;2023-04-23T09:40:06;9.27;;;2.85;;
58621;SDS011;44389;51.578;5.456;2023-04-23T09:42:35;8.05;;;2.28;;
58621;SDS011;44389;51.578;5.456;2023-04-23T09:45:05;7.30;;;2.83;;
58621;SDS011;44389;51.578;5.456;2023-04-23T09:47:32;7.80;;;2.20;;
58621;SDS011;44389;51.578;5.456;2023-04-23T09:52:25;6.35;;;2.17;;
58621;SDS011;44389;51.578;5.456;2023-04-23T09:54:51;9.20;;;2.17;;
58621;SDS011;44389;51.578;5.456;2023-04-23T09:57:16;9.65;;;2.00;;
58621;SDS011;44389;51.578;5.456;2023-04-23T09:59:41;8.52;;;2.20;;
58621;SDS011;44389;51.578;5.456;2023-04-23T10:02:07;9.07;;;2.25;;
58621;SDS011;44389;51.578;5.456;2023-04-23T10:04:33;11.30;;;2.40;;
58621;SDS011;44389;51.578;5.456;2023-04-23T10:07:00;7.35;;;2.13;;
58621;SDS011;44389;51.578;5.456;2023-04-23T10:09:27;11.93;;;2.15;;
58621;SDS011;44389;51.578;5.456;2023-04-23T10:11:57;10.30;;;2.70;;
58621;SDS011;44389;51.578;5.456;2023-04-23T10:14:24;11.73;;;2.80;;
58621;SDS011;44389;51.578;5.456;2023-04-23T10:16:51;11.52;;;2.92;;
58621;SDS011;44389;51.578;5.456;2023-04-23T10:19:21;12.18;;;2.60;;
58621;SDS011;44389;51.578;5.456;2023-04-23T10:21:58;9.57;;;2.40;;
58621;SDS011;44389;51.578;5.456;2023-04-23T10:24:28;8.63;;;2.15;;
58621;SDS011;44389;51.578;5.456;2023-04-23T10:26:58;7.40;;;2.15;;
58621;SDS011;44389;51.578;5.456;2023-04-23T10:29:27;10.00;;;2.88;;
58621;SDS011;44389;51.578;5.456;2023-04-23T10:32:00;10.48;;;2.50;;
58621;SDS011;44389;51.578;5.456;2023-04-23T10:34:27;8.80;;;2.15;;
58621;SDS011;44389;51.578;5.456;2023-04-23T10:36:54;9.38;;;2.17;;
58621;SDS011;44389;51.578;5.456;2023-04-23T10:39:21;10.23;;;2.60;;
58621;SDS011;44389;51.578;5.456;2023-04-23T10:44:14;7.97;;;2.33;;
58621;SDS011;44389;51.578;5.456;2023-04-23T10:46:52;8.07;;;1.85;;
58621;SDS011;44389;51.578;5.456;2023-04-23T10:49:21;6.88;;;2.20;;
58621;SDS011;44389;51.578;5.456;2023-04-23T10:51:47;7.65;;;2.17;;
58621;SDS011;44389;51.578;5.456;2023-04-23T10:54:14;8.02;;;2.50;;
58621;SDS011;44389;51.578;5.456;2023-04-23T10:56:40;9.90;;;2.63;;
58621;SDS011;44389;51.578;5.456;2023-04-23T10:59:19;7.10;;;2.22;;
58621;SDS011;44389;51.578;5.456;2023-04-23T11:01:46;8.18;;;2.20;;
58621;SDS011;44389;51.578;5.456;2023-04-23T11:04:18;5.78;;;2.00;;
58621;SDS011;44389;51.578;5.456;2023-04-23T11:11:54;8.57;;;2.50;;
58621;SDS011;44389;51.578;5.456;2023-04-23T11:14:32;7.95;;;2.30;;
58621;SDS011;44389;51.578;5.456;2023-04-23T11:17:01;4.47;;;2.03;;
58621;SDS011;44389;51.578;5.456;2023-04-23T11:19:28;6.32;;;2.35;;
58621;SDS011;44389;51.578;5.456;2023-04-23T11:21:58;7.57;;;2.10;;
58621;SDS011;44389;51.578;5.456;2023-04-23T11:24:28;6.80;;;2.10;;
58621;SDS011;44389;51.578;5.456;2023-04-23T11:26:55;7.50;;;1.98;;
58621;SDS011;44389;51.578;5.456;2023-04-23T11:29:21;8.75;;;1.90;;
58621;SDS011;44389;51.578;5.456;2023-04-23T11:31:48;6.53;;;2.20;;
58621;SDS011;44389;51.578;5.456;2023-04-23T11:34:14;6.25;;;2.00;;
58621;SDS011;44389;51.578;5.456;2023-04-23T11:36:40;8.10;;;2.20;;
58621;SDS011;44389;51.578;5.456;2023-04-23T11:39:06;7.25;;;2.25;;
58621;SDS011;44389;51.578;5.456;2023-04-23T11:41:33;7.47;;;2.10;;
58621;SDS011;44389;51.578;5.456;2023-04-23T11:43:59;6.53;;;2.28;;
58621;SDS011;44389;51.578;5.456;2023-04-23T11:46:24;7.28;;;2.03;;
58621;SDS011;44389;51.578;5.456;2023-04-23T11:48:50;7.78;;;2.28;;
58621;SDS011;44389;51.578;5.456;2023-04-23T11:51:15;7.95;;;2.40;;
58621;SDS011;44389;51.578;5.456;2023-04-23T11:53:45;8.98;;;2.65;;
58621;SDS011;44389;51.578;5.456;2023-04-23T11:56:11;6.13;;;1.88;;
58621;SDS011;44389;51.578;5.456;2023-04-23T11:58:36;3.88;;;1.33;;
58621;SDS011;44389;51.578;5.456;2023-04-23T12:01:01;4.63;;;1.25;;
58621;SDS011;44389;51.578;5.456;2023-04-23T12:03:27;8.15;;;1.75;;
58621;SDS011;44389;51.578;5.456;2023-04-23T12:05:53;4.57;;;1.40;;
58621;SDS011;44389;51.578;5.456;2023-04-23T12:08:20;5.88;;;2.00;;
58621;SDS011;44389;51.578;5.456;2023-04-23T12:10:58;7.55;;;1.80;;
58621;SDS011;44389;51.578;5.456;2023-04-23T12:13:26;4.35;;;1.52;;
58621;SDS011;44389;51.578;5.456;2023-04-23T12:15:56;5.15;;;1.42;;
58621;SDS011;44389;51.578;5.456;2023-04-23T12:18:41;8.00;;;1.90;;
58621;SDS011;44389;51.578;5.456;2023-04-23T12:21:08;6.95;;;1.70;;
58621;SDS011;44389;51.578;5.456;2023-04-23T12:23:39;9.10;;;2.00;;
58621;SDS011;44389;51.578;5.456;2023-04-23T12:26:11;5.80;;;1.90;;
58621;SDS011;44389;51.578;5.456;2023-04-23T12:28:45;6.65;;;1.60;;
58621;SDS011;44389;51.578;5.456;2023-04-23T12:31:22;5.85;;;1.52;;
58621;SDS011;44389;51.578;5.456;2023-04-23T12:33:56;9.07;;;2.15;;
58621;SDS011;44389;51.578;5.456;2023-04-23T12:36:29;5.82;;;1.60;;
58621;SDS011;44389;51.578;5.456;2023-04-23T12:39:17;4.68;;;1.52;;
58621;SDS011;44389;51.578;5.456;2023-04-23T12:41:52;7.82;;;2.10;;
58621;SDS011;44389;51.578;5.456;2023-04-23T12:44:19;6.80;;;1.48;;
58621;SDS011;44389;51.578;5.456;2023-04-23T12:46:48;5.07;;;1.48;;
58621;SDS011;44389;51.578;5.456;2023-04-23T12:49:14;6.50;;;1.73;;
58621;SDS011;44389;51.578;5.456;2023-04-23T12:51:39;9.00;;;1.90;;
58621;SDS011;44389;51.578;5.456;2023-04-23T12:54:04;8.15;;;2.13;;
58621;SDS011;44389;51.578;5.456;2023-04-23T12:56:30;4.53;;;1.60;;
58621;SDS011;44389;51.578;5.456;2023-04-23T12:58:55;10.63;;;1.75;;
58621;SDS011;44389;51.578;5.456;2023-04-23T13:01:20;7.05;;;1.83;;
58621;SDS011;44389;51.578;5.456;2023-04-23T13:03:46;6.03;;;1.50;;
58621;SDS011;44389;51.578;5.456;2023-04-23T13:06:11;5.05;;;1.50;;
58621;SDS011;44389;51.578;5.456;2023-04-23T13:08:36;6.22;;;1.70;;
58621;SDS011;44389;51.578;5.456;2023-04-23T13:11:02;10.15;;;2.30;;
58621;SDS011;44389;51.578;5.456;2023-04-23T13:13:27;6.00;;;1.70;;
58621;SDS011;44389;51.578;5.456;2023-04-23T13:15:52;6.20;;;1.38;;
58621;SDS011;44389;51.578;5.456;2023-04-23T13:18:18;6.78;;;1.60;;
58621;SDS011;44389;51.578;5.456;2023-04-23T13:20:44;8.30;;;1.83;;
58621;SDS011;44389;51.578;5.456;2023-04-23T13:23:09;5.38;;;1.40;;
58621;SDS011;44389;51.578;5.456;2023-04-23T13:25:36;6.18;;;1.63;;
58621;SDS011;44389;51.578;5.456;2023-04-23T13:28:01;6.35;;;1.83;;
58621;SDS011;44389;51.578;5.456;2023-04-23T13:30:26;5.82;;;1.80;;
58621;SDS011;44389;51.578;5.456;2023-04-23T13:32:52;8.77;;;1.90;;
58621;SDS011;44389;51.578;5.456;2023-04-23T13:35:17;5.32;;;1.58;;
58621;SDS011;44389;51.578;5.456;2023-04-23T13:37:43;6.13;;;1.50;;
58621;SDS011;44389;51.578;5.456;2023-04-23T13:40:08;6.45;;;1.63;;
58621;SDS011;44389;51.578;5.456;2023-04-23T13:42:34;6.57;;;1.75;;
58621;SDS011;44389;51.578;5.456;2023-04-23T13:44:59;5.50;;;1.88;;
58621;SDS011;44389;51.578;5.456;2023-04-23T13:47:26;5.90;;;1.60;;
58621;SDS011;44389;51.578;5.456;2023-04-23T13:49:55;6.78;;;1.42;;
58621;SDS011;44389;51.578;5.456;2023-04-23T13:52:20;3.90;;;1.27;;
58621;SDS011;44389;51.578;5.456;2023-04-23T13:54:46;6.15;;;1.80;;
58621;SDS011;44389;51.578;5.456;2023-04-23T13:57:13;5.03;;;1.42;;
58621;SDS011;44389;51.578;5.456;2023-04-23T13:59:38;8.45;;;1.98;;
58621;SDS011;44389;51.578;5.456;2023-04-23T14:02:04;7.57;;;1.83;;
58621;SDS011;44389;51.578;5.456;2023-04-23T14:04:29;5.80;;;1.65;;
58621;SDS011;44389;51.578;5.456;2023-04-23T14:06:54;5.18;;;1.50;;
58621;SDS011;44389;51.578;5.456;2023-04-23T14:09:19;4.72;;;1.50;;
58621;SDS011;44389;51.578;5.456;2023-04-23T14:11:46;5.47;;;1.60;;
58621;SDS011;44389;51.578;5.456;2023-04-23T14:14:11;5.70;;;2.03;;
58621;SDS011;44389;51.578;5.456;2023-04-23T14:16:40;6.80;;;1.80;;
58621;SDS011;44389;51.578;5.456;2023-04-23T14:19:05;8.73;;;2.20;;
58621;SDS011;44389;51.578;5.456;2023-04-23T14:21:30;6.72;;;2.20;;
58621;SDS011;44389;51.578;5.456;2023-04-23T14:24:08;7.50;;;2.03;;
58621;SDS011;44389;51.578;5.456;2023-04-23T14:26:42;5.60;;;1.90;;
58621;SDS011;44389;51.578;5.456;2023-04-23T14:31:47;7.68;;;1.83;;
58621;SDS011;44389;51.578;5.456;2023-04-23T14:34:12;10.45;;;2.80;;
58621;SDS011;44389;51.578;5.456;2023-04-23T14:36:37;7.10;;;2.30;;